createdAt,value
2023-03-07T05:51:29.010Z,9.55
2023-03-07T05:54:32.358Z,11.77
2023-03-07T05:57:35.614Z,10.17
2023-03-07T06:00:38.905Z,8.13
2023-03-07T06:03:43.054Z,8.55
2023-03-07T06:06:47.555Z,8.05
2023-03-07T06:09:51.086Z,8.05
2023-03-07T06:12:55.176Z,8.57
2023-03-07T06:15:59.410Z,8.27
2023-03-07T06:19:02.735Z,8.05
2023-03-07T06:22:08.939Z,8.48
2023-03-07T06:25:12.907Z,7.72
2023-03-07T06:28:17.143Z,8.20
2023-03-07T06:31:21.534Z,8.37
2023-03-07T06:34:24.634Z,7.05
2023-03-07T06:37:29.141Z,7.75
2023-03-07T06:40:32.382Z,7.97
2023-03-07T06:43:39.869Z,7.23
2023-03-07T06:46:43.160Z,6.67
2023-03-07T06:49:46.572Z,6.38
2023-03-07T06:52:51.941Z,7.70
2023-03-07T06:55:54.930Z,6.80
2023-03-07T06:58:58.635Z,7.63
2023-03-07T07:02:03.166Z,6.80
2023-03-07T07:05:07.269Z,6.68
2023-03-07T07:08:11.928Z,6.13
2023-03-07T07:11:14.989Z,5.75
2023-03-07T07:14:18.367Z,6.27
2023-03-07T07:17:21.867Z,6.33
2023-03-07T07:20:38.280Z,5.45
2023-03-07T07:23:45.896Z,7.10
2023-03-07T07:26:53.673Z,5.90
2023-03-07T07:29:56.877Z,5.83
2023-03-07T07:33:00.070Z,4.87
2023-03-07T07:36:03.430Z,5.22
2023-03-07T07:39:10.526Z,4.38
2023-03-07T07:42:14.086Z,4.30
2023-03-07T07:45:17.267Z,5.00
2023-03-07T07:48:20.540Z,5.00
2023-03-07T07:51:23.785Z,4.93
2023-03-07T07:54:29.180Z,6.07
2023-03-07T07:57:32.207Z,7.13
2023-03-07T08:00:35.870Z,7.03
2023-03-07T08:03:40.136Z,5.33
2023-03-07T08:06:45.194Z,6.45
2023-03-07T08:09:50.001Z,6.15
2023-03-07T08:12:53.112Z,6.43
2023-03-07T08:15:56.244Z,6.30
2023-03-07T08:19:00.674Z,6.93
2023-03-07T08:22:06.265Z,6.38
2023-03-07T08:25:18.412Z,6.00
2023-03-07T08:28:43.182Z,4.88
2023-03-07T08:31:56.454Z,4.60
2023-03-07T08:34:59.552Z,5.20
2023-03-07T08:38:02.662Z,4.72
2023-03-07T08:41:25.472Z,4.75
2023-03-07T08:44:30.131Z,4.20
2023-03-07T08:47:33.875Z,4.70
2023-03-07T08:50:37.966Z,5.77
2023-03-07T08:53:42.985Z,4.85
2023-03-07T08:56:50.566Z,5.10
2023-03-07T09:00:01.023Z,4.97
2023-03-07T09:03:06.038Z,5.33
2023-03-07T09:06:09.276Z,4.90
2023-03-07T09:09:12.370Z,5.18
2023-03-07T09:12:27.884Z,5.70
2023-03-07T09:15:36.425Z,5.25
2023-03-07T09:18:48.016Z,5.40
2023-03-07T09:21:51.688Z,5.17
2023-03-07T09:24:58.097Z,5.40
2023-03-07T09:28:10.515Z,5.35
2023-03-07T09:31:19.250Z,6.15
2023-03-07T09:34:29.205Z,6.93
2023-03-07T09:37:37.233Z,6.00
2023-03-07T09:40:48.308Z,5.32
2023-03-07T09:44:02.726Z,5.03
2023-03-07T09:47:23.359Z,5.53
2023-03-07T09:50:35.900Z,5.97
2023-03-07T09:53:45.609Z,6.07
2023-03-07T09:56:52.216Z,5.40
2023-03-07T09:59:59.859Z,6.55
2023-03-07T10:03:16.745Z,5.05
2023-03-07T10:06:26.212Z,5.63
2023-03-07T10:09:29.659Z,4.57
2023-03-07T10:12:49.701Z,4.28
2023-03-07T10:15:56.966Z,4.93
2023-03-07T10:19:09.897Z,5.00
2023-03-07T10:22:35.698Z,5.47
2023-03-07T10:25:52.624Z,4.70
2023-03-07T10:29:09.185Z,4.20
2023-03-07T10:32:28.321Z,4.68
2023-03-07T10:36:20.772Z,8.85
2023-03-07T10:40:40.853Z,4.83
2023-03-07T10:43:47.247Z,5.20
2023-03-07T10:46:56.799Z,4.90
2023-03-07T10:50:15.938Z,5.05
2023-03-07T10:53:25.887Z,5.07
2023-03-07T10:56:34.634Z,4.07
2023-03-07T10:59:44.416Z,5.10
2023-03-07T11:02:48.288Z,4.90
2023-03-07T11:05:53.093Z,5.10
2023-03-07T11:08:57.176Z,4.57
2023-03-07T11:12:13.250Z,4.53
2023-03-07T11:15:21.820Z,5.17
2023-03-07T11:18:32.995Z,5.10
2023-03-07T11:21:37.651Z,4.80
2023-03-07T11:24:41.259Z,5.07
2023-03-07T11:27:51.206Z,5.97
2023-03-07T11:31:01.571Z,5.30
2023-03-07T11:34:25.302Z,4.75
2023-03-07T11:37:34.834Z,6.22
2023-03-07T11:40:46.665Z,4.93
2023-03-07T11:44:12.732Z,4.70
2023-03-07T11:47:28.709Z,4.60
2023-03-07T11:50:33.601Z,5.13
2023-03-07T11:53:57.838Z,4.72
2023-03-07T11:57:19.265Z,4.75
2023-03-07T12:00:32.393Z,5.30
2023-03-07T12:04:12.182Z,5.10
2023-03-07T12:07:32.265Z,4.90
2023-03-07T12:10:50.594Z,5.32
2023-03-07T12:14:05.966Z,4.97
2023-03-07T12:17:23.301Z,7.10
2023-03-07T12:20:34.782Z,5.30
2023-03-07T12:23:43.534Z,4.57
2023-03-07T12:26:54.043Z,4.78
2023-03-07T12:30:02.789Z,7.05
2023-03-07T12:33:08.186Z,4.80
2023-03-07T12:36:22.157Z,5.20
2023-03-07T12:39:32.044Z,5.00
2023-03-07T12:42:46.457Z,5.15
2023-03-07T12:45:56.974Z,4.70
2023-03-07T12:49:06.905Z,4.60
2023-03-07T12:52:17.493Z,4.27
2023-03-07T12:55:27.095Z,5.25
2023-03-07T12:58:40.567Z,4.80
2023-03-07T13:01:49.271Z,4.22
2023-03-07T13:04:52.704Z,5.17
2023-03-07T13:07:57.580Z,4.73
2023-03-07T13:11:02.487Z,4.97
2023-03-07T13:14:07.441Z,5.28
2023-03-07T13:17:11.639Z,4.85
2023-03-07T13:20:44.471Z,4.43
2023-03-07T13:23:47.613Z,5.07
2023-03-07T13:26:57.017Z,5.07
2023-03-07T13:30:22.111Z,5.07
2023-03-07T13:33:30.264Z,4.70
2023-03-07T13:36:36.578Z,5.40
2023-03-07T13:39:40.340Z,5.07
2023-03-07T13:42:56.730Z,5.32
2023-03-07T13:46:01.844Z,5.03
2023-03-07T13:49:09.034Z,5.15
2023-03-07T13:52:32.973Z,5.50
2023-03-07T13:55:46.524Z,5.80
2023-03-07T13:58:53.537Z,5.63
2023-03-07T14:02:00.290Z,5.03
2023-03-07T14:05:04.485Z,5.78
2023-03-07T14:08:14.519Z,5.53
2023-03-07T14:11:29.909Z,5.10
2023-03-07T14:14:54.869Z,5.60
2023-03-07T14:18:22.799Z,5.68
2023-03-07T14:21:42.678Z,5.60
2023-03-07T14:24:58.762Z,5.77
2023-03-07T14:28:03.502Z,6.10
2023-03-07T14:31:06.791Z,4.70
2023-03-07T14:34:27.941Z,5.10
2023-03-07T14:37:32.695Z,6.20
2023-03-07T14:40:47.071Z,5.53
2023-03-07T14:44:03.864Z,5.57
2023-03-07T14:47:20.683Z,6.00
2023-03-07T14:50:28.535Z,6.45
2023-03-07T14:53:34.192Z,5.38
2023-03-07T14:56:40.860Z,5.37
2023-03-07T14:59:44.122Z,5.73
2023-03-07T15:02:48.922Z,5.90
2023-03-07T15:05:55.511Z,6.45
2023-03-07T15:09:01.312Z,6.50
2023-03-07T15:12:15.913Z,5.40
2023-03-07T15:15:28.133Z,5.93
2023-03-07T15:18:38.639Z,5.68
2023-03-07T15:21:47.350Z,6.50
2023-03-07T15:24:53.045Z,6.20
2023-03-07T15:28:01.408Z,6.67
2023-03-07T15:31:05.828Z,6.00
2023-03-07T15:34:21.653Z,6.15
2023-03-07T15:37:28.607Z,5.90
2023-03-07T15:40:33.488Z,6.22
2023-03-07T15:43:36.977Z,5.73
2023-03-07T15:46:43.415Z,6.57
2023-03-07T15:49:49.649Z,6.93
2023-03-07T15:52:57.096Z,7.05
2023-03-07T15:56:02.491Z,6.13
2023-03-07T15:59:10.122Z,6.33
2023-03-07T16:02:43.005Z,12.90
2023-03-07T16:05:46.328Z,6.60
